»·PEaware :: N324GM KSMX-KBFL

N324GM :: KSMX-KBFL

FLIGHT INFORMATION

Flight Status: Arrived
Operator: Privately registered:
United States
More flights under this callsign
Pilot: Gavin M. (15591)
Aircraft: BEECH AIRCRAFT BEECH AIRLINER
(B190)
More flights by this aircraft type
Origin: KSMX Santa Maria Pub/Capt Hancock
United States
Destination: KBFL Meadows
United States
More flights between these airports :: More routes between these airports
Route: +BUELT4 RZS V183 STIGR
File this flight plan on PilotEdge
Remarks:
Altitude:
(Current/Filed)
11,000ft
Speed:
(Current/Filed)
200kts
Departed: 07-Oct-17 08:23 PM
Arrived: 07-Oct-17 08:57 PM
Distance/Time
Traveled:
321nm/0:34
Distance/Time
To Go:
Arrived

Flight Plot

Page will automatically refresh every two minutes.

Flight plan parsing failed; only flown route is shown


Map Options




Map Legend


Flown Route
Filed Route
Departure Airport
Arrival Airport
Navaid (VOR, NDB)
Fix

Horizontal Profiles

Position Reports

Time Latitude Longitude Heading Altitude Ground
Speed
07-Oct-17 20:16 34.891774 -120.455280 0 266ft 0kts
07-Oct-17 20:17 34.891774 -120.455280 0 266ft 0kts
07-Oct-17 20:18 34.891774 -120.455280 0 266ft 0kts
07-Oct-17 20:19 34.891774 -120.455280 0 266ft 0kts
07-Oct-17 20:20 34.891774 -120.455280 0 266ft 0kts
07-Oct-17 20:21 34.891774 -120.455280 0 266ft 0kts
07-Oct-17 20:22 34.891774 -120.455280 0 266ft 0kts
07-Oct-17 20:23 34.891774 -120.455280 0 266ft 0kts
07-Oct-17 20:24 34.891774 -120.455280 0 266ft 0kts
07-Oct-17 20:25 34.891577 -120.452169 110 266ft 22kts
07-Oct-17 20:26 34.891808 -120.446200 45 266ft 0kts
07-Oct-17 20:27 34.893350 -120.446442 314 267ft 53kts
07-Oct-17 20:28 34.927049 -120.453508 60 1943ft 176kts
07-Oct-17 20:29 34.903317 -120.423568 199 3289ft 207kts
07-Oct-17 20:30 34.847632 -120.436564 152 4930ft 225kts
07-Oct-17 20:31 34.792596 -120.393288 146 5208ft 233kts
07-Oct-17 20:32 34.744875 -120.353908 147 6281ft 218kts
07-Oct-17 20:33 34.695875 -120.313498 147 7452ft 212kts
07-Oct-17 20:34 34.651188 -120.270219 114 8628ft 210kts
07-Oct-17 20:35 34.633002 -120.209024 108 9924ft 202kts
07-Oct-17 20:36 34.614672 -120.143953 107 11034ft 210kts
07-Oct-17 20:37 34.595042 -120.073487 108 11131ft 254kts
07-Oct-17 20:38 34.570826 -119.987994 108 11115ft 276kts
07-Oct-17 20:39 34.545624 -119.899196 107 11087ft 280kts
07-Oct-17 20:40 34.520271 -119.810016 107 11062ft 280kts
07-Oct-17 20:41 34.554264 -119.740275 28 11052ft 265kts
07-Oct-17 20:42 34.618062 -119.696100 26 11049ft 265kts
07-Oct-17 20:43 34.681637 -119.652603 26 11049ft 265kts
07-Oct-17 20:44 34.744772 -119.609348 26 11047ft 252kts
07-Oct-17 20:45 34.798685 -119.572393 26 11054ft 244kts
07-Oct-17 20:46 34.857179 -119.532253 26 11052ft 242kts
07-Oct-17 20:47 34.915717 -119.491990 26 11062ft 241kts
07-Oct-17 20:48 34.973987 -119.451834 26 11084ft 241kts
07-Oct-17 20:49 35.031933 -119.411847 26 11100ft 240kts
07-Oct-17 20:50 35.090026 -119.371834 26 11103ft 241kts
07-Oct-17 20:51 35.140780 -119.336712 26 11040ft 242kts
07-Oct-17 20:52 35.196448 -119.297534 27 10118ft 218kts
07-Oct-17 20:53 35.248015 -119.260669 27 8731ft 219kts
07-Oct-17 20:54 35.301609 -119.223398 27 7349ft 223kts
07-Oct-17 20:55 35.355675 -119.186700 27 5962ft 223kts
07-Oct-17 20:56 35.410059 -119.150854 27 4570ft 222kts
07-Oct-17 20:57 35.463212 -119.124028 6 3143ft 193kts
07-Oct-17 20:58 35.507499 -119.117793 295 2657ft 176kts
07-Oct-17 20:59 35.479577 -119.110916 132 1692ft 137kts
07-Oct-17 21:00 35.452130 -119.078320 132 723ft 130kts
07-Oct-17 21:01 35.438266 -119.060264 95 511ft 10kts
07-Oct-17 21:02 35.438207 -119.059378 110 511ft 5kts
07-Oct-17 21:03 35.435487 -119.055956 134 511ft 25kts
07-Oct-17 21:04 35.435697 -119.052344 186 511ft 1kts
07-Oct-17 21:05 35.435642 -119.052352 186 511ft 0kts
07-Oct-17 21:06 35.435642 -119.052352 186 511ft 0kts
07-Oct-17 21:07 35.435642 -119.052352 186 511ft 0kts
07-Oct-17 21:08 35.435642 -119.052352 186 511ft 0kts
07-Oct-17 21:09 35.435642 -119.052352 186 511ft 0kts
07-Oct-17 21:10 35.435642 -119.052352 186 511ft 0kts
07-Oct-17 21:11 35.435642 -119.052352 186 511ft 0kts
07-Oct-17 21:12 32.668005 -114.601369 179 217ft 0kts
07-Oct-17 21:13 32.668005 -114.601369 179 217ft 0kts
07-Oct-17 21:14 32.668005 -114.601369 179 217ft 0kts

Navigation Log

Ident Type
Flight plan parsing failed, navigation log unavailable